Time;durP1;ratioP1;P1;durP2;ratioP2;P2;SDS_P1;SDS_P2;PMS_P1;PMS_P2;Temp;Humidity;BMP_temperature;BMP_pressure;BME280_temperature;BME280_humidity;BME280_pressure;Samples;Min_cycle;Max_cycle;Signal;HPM_P1;HPM_P2
2023/03/11 00:01:50;;;;;;;10.30;7.57;;;13.10;99.90;;;;;;5074711;28;20422;-83
2023/03/11 00:04:16;;;;;;;8.97;8.07;;;13.00;99.90;;;;;;5073345;28;20691;-83
2023/03/11 00:06:42;;;;;;;8.57;7.30;;;13.10;99.90;;;;;;5074581;28;20641;-83
2023/03/11 00:09:07;;;;;;;8.97;7.60;;;13.20;99.90;;;;;;5073245;28;20185;-83
2023/03/11 00:11:34;;;;;;;8.13;7.10;;;13.20;99.90;;;;;;5074485;28;20176;-84
2023/03/11 00:14:00;;;;;;;8.50;6.67;;;13.20;99.90;;;;;;5074192;28;20590;-83
2023/03/11 00:16:25;;;;;;;9.20;6.50;;;13.30;99.90;;;;;;5073928;28;20418;-81
2023/03/11 00:18:51;;;;;;;8.30;6.50;;;13.30;99.90;;;;;;5074210;28;20196;-84
2023/03/11 00:21:19;;;;;;;9.00;6.37;;;13.20;99.90;;;;;;5074311;28;20325;-82
2023/03/11 00:23:45;;;;;;;8.63;6.90;;;13.20;99.90;;;;;;5072945;28;20878;-83
2023/03/11 00:26:11;;;;;;;8.70;6.00;;;13.10;99.90;;;;;;5074301;28;20890;-83
2023/03/11 00:28:37;;;;;;;7.50;6.40;;;13.10;99.90;;;;;;5072798;28;20550;-83
2023/03/11 00:31:03;;;;;;;7.27;6.40;;;13.10;99.90;;;;;;5074154;28;20784;-84
2023/03/11 00:33:29;;;;;;;7.93;5.97;;;13.10;99.90;;;;;;5072721;28;20201;-83
2023/03/11 00:35:55;;;;;;;8.20;5.63;;;13.10;99.90;;;;;;5074008;28;21074;-83
2023/03/11 00:38:21;;;;;;;7.07;5.30;;;13.10;99.90;;;;;;5072578;28;20524;-83
2023/03/11 00:40:47;;;;;;;11.37;5.57;;;13.00;99.90;;;;;;5072570;28;20177;-83
2023/03/11 00:43:14;;;;;;;7.47;5.50;;;13.10;99.90;;;;;;5073922;28;20193;-83
2023/03/11 00:45:40;;;;;;;7.73;5.53;;;13.00;99.90;;;;;;5072643;28;20843;-83
2023/03/11 00:48:06;;;;;;;7.40;5.50;;;13.00;99.90;;;;;;5074169;28;20516;-82
2023/03/11 00:50:35;;;;;;;12.27;6.33;;;13.00;99.90;;;;;;5073890;28;20418;-82
2023/03/11 00:53:02;;;;;;;6.03;4.90;;;13.00;99.90;;;;;;5074239;28;20445;-81
2023/03/11 00:55:30;;;;;;;6.20;5.33;;;13.00;99.90;;;;;;5072503;28;20413;-81
2023/03/11 00:57:58;;;;;;;6.67;5.20;;;12.90;99.90;;;;;;5072352;28;20457;-81
2023/03/11 01:00:26;;;;;;;7.27;5.97;;;12.90;99.90;;;;;;5073728;28;20410;-83
2023/03/11 01:02:53;;;;;;;8.40;6.60;;;12.90;99.90;;;;;;5074155;28;20488;-82
2023/03/11 01:05:21;;;;;;;7.00;5.80;;;12.80;99.90;;;;;;5073723;28;20414;-81
2023/03/11 01:07:47;;;;;;;7.50;6.30;;;12.80;99.90;;;;;;5072416;28;20619;-81
2023/03/11 01:10:14;;;;;;;8.63;6.57;;;12.80;99.90;;;;;;5072443;28;20453;-84
2023/03/11 01:12:39;;;;;;;8.27;6.10;;;12.80;99.90;;;;;;5073981;28;20441;-82
2023/03/11 01:15:07;;;;;;;6.27;5.47;;;12.80;99.90;;;;;;5073587;28;20556;-82
2023/03/11 01:17:33;;;;;;;7.03;4.90;;;12.80;99.90;;;;;;5072445;28;20969;-83
2023/03/11 01:19:58;;;;;;;4.70;4.27;;;12.80;99.90;;;;;;5072270;28;20426;-81
2023/03/11 01:22:24;;;;;;;4.27;3.83;;;12.80;99.90;;;;;;5073852;28;20222;-81
2023/03/11 01:24:50;;;;;;;3.70;3.30;;;12.80;99.90;;;;;;5073470;28;20173;-81
2023/03/11 01:27:16;;;;;;;3.77;3.47;;;12.90;99.90;;;;;;5074897;28;20221;-81
2023/03/11 01:29:41;;;;;;;4.60;3.50;;;12.80;99.90;;;;;;5076305;28;20441;-82
2023/03/11 01:32:07;;;;;;;4.57;3.50;;;12.80;99.90;;;;;;5077681;28;20193;-83
2023/03/11 01:34:34;;;;;;;6.13;2.93;;;12.80;99.90;;;;;;5077438;28;20230;-81
2023/03/11 01:37:02;;;;;;;4.53;3.97;;;12.80;99.90;;;;;;5077588;28;20193;-82
2023/03/11 01:39:28;;;;;;;3.60;3.30;;;12.80;99.90;;;;;;5075994;28;20409;-82
2023/03/11 01:41:55;;;;;;;5.90;4.20;;;12.80;99.90;;;;;;5077462;28;20486;-83
2023/03/11 01:44:21;;;;;;;4.78;4.05;;;12.80;99.90;;;;;;5077292;28;20414;-83
2023/03/11 01:46:52;;;;;;;5.43;4.37;;;12.80;99.90;;;;;;5075899;28;20177;-81
2023/03/11 01:49:22;;;;;;;4.07;3.63;;;12.80;99.90;;;;;;5077151;28;20422;-83
2023/03/11 01:51:51;;;;;;;4.90;4.37;;;12.80;99.90;;;;;;5076965;28;20475;-81
2023/03/11 01:54:25;;;;;;;6.73;4.47;;;12.80;99.90;;;;;;5075772;28;20422;-84
2023/03/11 01:56:52;;;;;;;6.15;4.35;;;12.80;99.90;;;;;;5075797;28;20413;-84
2023/03/11 01:59:22;;;;;;;5.27;4.37;;;12.80;99.90;;;;;;5075760;28;20218;-82
2023/03/11 02:01:57;;;;;;;5.80;5.03;;;12.80;99.90;;;;;;5075773;28;20788;-84
2023/03/11 02:04:23;;;;;;;5.60;3.90;;;12.80;99.90;;;;;;5075757;28;20314;-83
2023/03/11 02:06:49;;;;;;;4.70;4.20;;;12.80;99.90;;;;;;5076904;28;20438;-83
2023/03/11 02:09:14;;;;;;;8.65;5.03;;;12.80;99.90;;;;;;5076816;28;20264;-83
2023/03/11 02:11:40;;;;;;;4.97;4.47;;;12.80;99.90;;;;;;5076789;28;20751;-83
2023/03/11 02:14:08;;;;;;;4.13;3.63;;;12.80;99.90;;;;;;5076400;28;20511;-80
2023/03/11 02:16:33;;;;;;;5.07;4.57;;;12.70;99.90;;;;;;5076885;28;20256;-82
2023/03/11 02:19:10;;;;;;;5.23;3.90;;;12.70;99.90;;;;;;5076665;28;20441;-81
2023/03/11 02:21:36;;;;;;;6.23;3.40;;;12.70;99.90;;;;;;5076825;28;20183;-83
2023/03/11 02:24:07;;;;;;;5.30;3.83;;;12.70;99.90;;;;;;5076547;28;20402;-81
2023/03/11 02:26:55;;;;;;;4.40;3.80;;;12.70;99.90;;;;;;5075221;28;20753;-83
2023/03/11 02:29:21;;;;;;;3.77;3.03;;;12.60;99.90;;;;;;5075228;28;21025;-82
2023/03/11 02:31:48;;;;;;;4.57;4.17;;;12.60;99.90;;;;;;5076562;28;20500;-83
2023/03/11 02:34:46;;;;;;;4.25;3.30;;;12.60;99.90;;;;;;5075088;28;20410;-82
2023/03/11 02:37:14;;;;;;;4.20;3.80;;;12.60;99.90;;;;;;5064119;28;20291;-83
2023/03/11 02:39:43;;;;;;;3.87;2.93;;;12.60;99.90;;;;;;5075662;28;20926;-81
2023/03/11 02:42:14;;;;;;;5.00;3.20;;;12.60;99.90;;;;;;5076557;28;20961;-81
2023/03/11 02:44:43;;;;;;;6.53;3.40;;;12.60;99.90;;;;;;5076107;28;20421;-83
2023/03/11 02:47:09;;;;;;;3.50;2.77;;;12.60;99.90;;;;;;5076289;28;20457;-81
2023/03/11 02:49:35;;;;;;;2.92;2.22;;;12.60;99.90;;;;;;5076107;28;20449;-83
2023/03/11 02:52:02;;;;;;;3.03;2.45;;;12.60;99.90;;;;;;5076162;28;20224;-83
2023/03/11 02:54:27;;;;;;;3.25;2.70;;;12.50;99.90;;;;;;5074810;28;20550;-81
2023/03/11 02:56:53;;;;;;;2.50;1.97;;;12.50;99.90;;;;;;5075863;28;20180;-81
2023/03/11 02:59:18;;;;;;;2.60;2.40;;;12.50;99.90;;;;;;5075906;28;20177;-83
2023/03/11 03:01:44;;;;;;;2.53;1.70;;;12.50;99.90;;;;;;5074612;28;20181;-82
2023/03/11 03:04:10;;;;;;;1.87;1.67;;;12.60;99.90;;;;;;5075844;28;20201;-84
2023/03/11 03:06:36;;;;;;;4.97;2.53;;;12.60;99.90;;;;;;5075852;28;20180;-82
2023/03/11 03:09:02;;;;;;;6.47;2.03;;;12.50;99.90;;;;;;5075745;28;20270;-83
2023/03/11 03:11:28;;;;;;;1.67;1.47;;;12.50;99.90;;;;;;5074428;28;20699;-81
2023/03/11 03:13:53;;;;;;;3.30;2.30;;;12.50;99.90;;;;;;5074097;28;20465;-83
2023/03/11 03:16:19;;;;;;;1.30;1.20;;;12.50;99.90;;;;;;5075658;28;20181;-81
2023/03/11 03:18:45;;;;;;;2.77;1.80;;;12.50;99.90;;;;;;5075449;28;20204;-83
2023/03/11 03:21:10;;;;;;;2.67;1.70;;;12.40;99.90;;;;;;5074254;28;20673;-84
2023/03/11 03:23:36;;;;;;;2.30;1.83;;;12.40;99.90;;;;;;5073994;28;20241;-81
2023/03/11 03:26:04;;;;;;;2.23;1.67;;;12.40;99.90;;;;;;5075314;28;20193;-83
2023/03/11 03:28:29;;;;;;;1.52;1.42;;;12.40;99.90;;;;;;5075244;28;20480;-82
2023/03/11 03:30:55;;;;;;;2.87;1.70;;;12.40;99.90;;;;;;5075296;28;20181;-81
2023/03/11 03:33:21;;;;;;;2.70;1.87;;;12.40;99.90;;;;;;5073893;28;20205;-82
2023/03/11 03:35:48;;;;;;;3.20;1.50;;;12.30;99.90;;;;;;5075038;28;20404;-81
2023/03/11 03:38:13;;;;;;;2.05;1.55;;;12.30;99.90;;;;;;5075425;28;20208;-84
2023/03/11 03:44:01;;;;;;;2.30;1.45;;;12.30;99.90;;;;;;5075465;28;20413;-82
2023/03/11 03:46:27;;;;;;;1.47;1.37;;;12.20;99.90;;;;;;5073697;28;20174;-84
2023/03/11 03:48:53;;;;;;;1.63;1.43;;;12.20;99.90;;;;;;5074720;28;20300;-81
2023/03/11 03:51:18;;;;;;;2.80;1.13;;;12.20;99.90;;;;;;5074090;28;20181;-83
2023/03/11 03:53:47;;;;;;;1.87;1.30;;;12.20;99.90;;;;;;5073513;28;20201;-81
2023/03/11 03:56:15;;;;;;;1.65;1.23;;;12.20;99.90;;;;;;5073536;28;20315;-84
2023/03/11 03:58:41;;;;;;;1.48;1.10;;;12.20;99.90;;;;;;5074753;28;20296;-82
2023/03/11 04:01:08;;;;;;;2.55;1.30;;;12.20;99.90;;;;;;5074601;28;20173;-81
2023/03/11 04:03:34;;;;;;;2.05;1.40;;;12.20;99.90;;;;;;5074524;28;20197;-81
2023/03/11 04:06:07;;;;;;;2.15;1.60;;;12.20;99.90;;;;;;5073291;28;20180;-83
2023/03/11 04:08:33;;;;;;;1.95;1.33;;;12.10;99.90;;;;;;5074323;28;20234;-84
2023/03/11 04:10:59;;;;;;;2.50;1.80;;;12.10;99.90;;;;;;5074523;28;20192;-85
2023/03/11 04:13:24;;;;;;;2.40;1.60;;;12.10;99.90;;;;;;5074139;28;20208;-82
2023/03/11 04:15:50;;;;;;;1.20;1.13;;;12.10;99.90;;;;;;5073118;28;20180;-82
2023/03/11 04:18:16;;;;;;;1.80;1.63;;;12.00;99.90;;;;;;5073021;28;20205;-84
2023/03/11 04:20:42;;;;;;;2.10;1.37;;;12.00;99.90;;;;;;5073015;28;20173;-83
2023/03/11 04:23:07;;;;;;;3.80;1.33;;;12.10;99.90;;;;;;5074602;28;20277;-84
2023/03/11 04:25:33;;;;;;;3.57;1.50;;;12.10;99.90;;;;;;5072893;28;20256;-82
2023/03/11 04:27:59;;;;;;;1.53;1.43;;;12.00;99.90;;;;;;5072905;28;20228;-82
2023/03/11 04:30:25;;;;;;;3.57;1.97;;;12.00;99.90;;;;;;5074185;28;20542;-83
2023/03/11 04:32:50;;;;;;;2.47;1.60;;;12.00;99.90;;;;;;5073991;28;20689;-84
2023/03/11 04:35:16;;;;;;;1.37;1.20;;;12.00;99.90;;;;;;5072802;28;20191;-83
2023/03/11 04:37:42;;;;;;;1.93;1.27;;;12.00;99.90;;;;;;5072737;28;20204;-84
2023/03/11 04:40:09;;;;;;;1.53;1.43;;;11.90;99.90;;;;;;5073967;28;20260;-83
2023/03/11 04:42:35;;;;;;;1.85;1.25;;;11.90;99.90;;;;;;5072732;28;20286;-82
2023/03/11 04:45:01;;;;;;;5.57;1.40;;;11.90;99.90;;;;;;5072712;28;20218;-81
2023/03/11 04:47:27;;;;;;;2.40;1.53;;;11.90;99.90;;;;;;5073719;28;20946;-84
2023/03/11 04:49:54;;;;;;;1.98;1.40;;;11.90;99.90;;;;;;5073826;28;20264;-84
2023/03/11 04:52:20;;;;;;;1.80;1.33;;;11.80;99.90;;;;;;5074196;28;20331;-83
2023/03/11 04:54:46;;;;;;;1.50;1.40;;;11.70;99.90;;;;;;5073852;28;20217;-81
2023/03/11 04:57:12;;;;;;;1.67;1.20;;;11.70;99.90;;;;;;5074127;28;20629;-82
2023/03/11 04:59:37;;;;;;;2.40;1.20;;;11.60;99.90;;;;;;5073721;28;20264;-83
2023/03/11 05:02:03;;;;;;;0.80;0.80;;;11.60;99.90;;;;;;5072317;28;20872;-82
2023/03/11 05:04:29;;;;;;;1.83;1.30;;;11.60;99.90;;;;;;5073759;28;20205;-84
2023/03/11 05:06:54;;;;;;;1.63;1.20;;;11.50;99.90;;;;;;5072217;28;20666;-84
2023/03/11 05:09:20;;;;;;;2.53;1.20;;;11.50;99.90;;;;;;5073733;28;20188;-85
2023/03/11 05:11:46;;;;;;;1.20;1.10;;;11.40;99.90;;;;;;5073810;28;20208;-82
2023/03/11 05:14:12;;;;;;;3.60;1.20;;;11.40;99.90;;;;;;5073501;28;20225;-82
2023/03/11 05:16:37;;;;;;;2.20;1.20;;;11.30;99.90;;;;;;5073478;28;20769;-81
2023/03/11 05:19:29;;;;;;;1.93;1.27;;;11.20;99.90;;;;;;5072345;28;20181;-79
2023/03/11 05:21:49;;;;;;;2.38;0.90;;;11.20;99.90;;;;;;5073524;28;20208;-81
2023/03/11 05:24:15;;;;;;;1.90;1.17;;;11.10;99.90;;;;;;5073584;28;20181;-82
2023/03/11 05:26:40;;;;;;;1.30;1.00;;;11.10;99.90;;;;;;5072166;28;20206;-80
2023/03/11 05:29:06;;;;;;;3.53;1.00;;;11.10;99.90;;;;;;5073451;28;20262;-82
2023/03/11 05:31:32;;;;;;;3.13;0.90;;;11.00;99.90;;;;;;5073533;28;20233;-82
2023/03/11 05:33:57;;;;;;;3.00;1.27;;;11.00;99.90;;;;;;5072138;28;20604;-82
2023/03/11 05:36:23;;;;;;;2.20;1.60;;;11.00;99.90;;;;;;5073564;28;20248;-80
2023/03/11 05:38:49;;;;;;;1.17;1.07;;;11.00;99.90;;;;;;5072043;28;20346;-83
2023/03/11 05:41:14;;;;;;;1.20;1.00;;;10.90;99.90;;;;;;5073491;28;20630;-80
2023/03/11 05:43:40;;;;;;;0.77;0.77;;;10.90;99.90;;;;;;5073246;28;20197;-81
2023/03/11 05:46:06;;;;;;;2.60;1.40;;;10.80;99.90;;;;;;5071996;28;20173;-82
2023/03/11 05:48:31;;;;;;;1.30;1.00;;;10.80;99.90;;;;;;5073128;28;20685;-82
2023/03/11 05:50:58;;;;;;;1.47;1.23;;;10.80;99.90;;;;;;5071998;28;20173;-82
2023/03/11 05:53:26;;;;;;;2.75;1.23;;;10.70;99.90;;;;;;5073279;28;20189;-79
2023/03/11 05:55:57;;;;;;;1.15;1.05;;;10.60;99.90;;;;;;5071866;28;20268;-82
2023/03/11 05:58:23;;;;;;;1.58;1.25;;;10.50;99.90;;;;;;5071983;28;20201;-85
2023/03/11 06:00:48;;;;;;;2.60;1.30;;;10.50;99.90;;;;;;5071813;28;20642;-83
2023/03/11 06:03:14;;;;;;;2.40;1.50;;;10.40;99.90;;;;;;5073104;28;20197;-83
2023/03/11 06:05:47;;;;;;;6.97;1.33;;;10.40;99.90;;;;;;5073354;28;20264;-82
2023/03/11 06:08:12;;;;;;;1.50;1.40;;;10.30;99.90;;;;;;5072995;28;20588;-82
2023/03/11 06:10:38;;;;;;;5.77;1.47;;;10.20;99.90;;;;;;5071794;28;20173;-79
2023/03/11 06:13:04;;;;;;;4.03;1.17;;;10.10;99.90;;;;;;5074107;28;20201;-82
2023/03/11 06:15:32;;;;;;;1.83;1.10;;;10.00;99.90;;;;;;5075282;28;20825;-79
2023/03/11 06:17:58;;;;;;;2.70;1.52;;;9.90;99.90;;;;;;5077010;28;20254;-82
2023/03/11 06:20:24;;;;;;;2.20;1.60;;;9.80;99.90;;;;;;5076619;28;20694;-82
2023/03/11 06:22:51;;;;;;;5.60;2.43;;;9.70;99.90;;;;;;5075567;28;20480;-82
2023/03/11 06:25:17;;;;;;;5.30;1.00;;;9.60;99.90;;;;;;5076531;28;20903;-79
2023/03/11 06:27:46;;;;;;;8.40;1.60;;;9.50;99.90;;;;;;5075223;28;20304;-79
2023/03/11 06:30:12;;;;;;;5.82;1.65;;;9.40;99.90;;;;;;5076512;28;20906;-79
2023/03/11 06:32:38;;;;;;;8.25;1.80;;;9.20;99.90;;;;;;5076690;28;20193;-83
2023/03/11 06:35:04;;;;;;;4.33;1.20;;;9.00;99.90;;;;;;5076357;28;20256;-81
2023/03/11 06:37:30;;;;;;;4.37;1.53;;;8.90;99.90;;;;;;5075184;28;20270;-80
2023/03/11 06:39:56;;;;;;;8.13;1.50;;;8.80;99.90;;;;;;5075355;28;20979;-80
2023/03/11 06:42:25;;;;;;;6.70;1.30;;;8.60;99.90;;;;;;5076525;28;20192;-82
2023/03/11 06:44:51;;;;;;;5.68;1.30;;;8.40;99.90;;;;;;5074925;28;20596;-79
2023/03/11 06:47:17;;;;;;;5.27;1.33;;;8.30;99.90;;;;;;5076378;28;20228;-83
2023/03/11 06:49:42;;;;;;;7.30;1.57;;;8.20;99.90;;;;;;5076108;28;20452;-79
2023/03/11 06:52:08;;;;;;;11.40;3.20;;;8.20;99.90;;;;;;5074894;28;20213;-80
2023/03/11 06:54:34;;;;;;;10.38;1.90;;;8.20;99.90;;;;;;5074729;28;20185;-80
2023/03/11 06:57:01;;;;;;;9.43;1.42;;;8.10;99.90;;;;;;5076076;28;20203;-79
2023/03/11 06:59:27;;;;;;;8.68;1.95;;;8.10;99.90;;;;;;5076003;28;20707;-80
2023/03/11 07:01:53;;;;;;;6.07;1.70;;;8.10;99.90;;;;;;5074608;28;20182;-79
2023/03/11 07:04:19;;;;;;;6.40;1.50;;;8.10;99.90;;;;;;5075596;28;20903;-83
2023/03/11 07:06:45;;;;;;;15.55;1.98;;;8.10;99.90;;;;;;5074147;28;20181;-79
2023/03/11 07:09:11;;;;;;;16.20;2.40;;;8.20;99.90;;;;;;5075373;28;20212;-79
2023/03/11 07:11:37;;;;;;;16.92;2.75;;;8.30;99.90;;;;;;5073939;28;20197;-83
2023/03/11 07:14:03;;;;;;;10.35;1.45;;;8.30;99.90;;;;;;5073907;28;20225;-80
2023/03/11 07:16:29;;;;;;;18.03;2.10;;;8.40;99.90;;;;;;5074128;28;20183;-79
2023/03/11 07:18:57;;;;;;;11.10;1.58;;;8.40;99.90;;;;;;5075171;28;20263;-82
2023/03/11 07:21:24;;;;;;;5.88;1.27;;;8.40;99.90;;;;;;5073976;28;20231;-81
2023/03/11 07:23:58;;;;;;;13.13;1.88;;;8.40;99.90;;;;;;5073702;28;20209;-79
2023/03/11 07:26:25;;;;;;;7.93;2.85;;;8.40;99.90;;;;;;5073775;28;20290;-80
2023/03/11 07:28:52;;;;;;;7.22;1.20;;;8.50;99.90;;;;;;5073378;28;20201;-82
2023/03/11 07:31:23;;;;;;;8.10;1.63;;;8.50;99.90;;;;;;5073613;28;20223;-82
2023/03/11 07:33:50;;;;;;;6.18;1.98;;;8.50;99.90;;;;;;5073492;28;20492;-82
2023/03/11 07:36:18;;;;;;;11.43;1.55;;;8.50;99.90;;;;;;5073637;28;20177;-81
2023/03/11 07:38:44;;;;;;;24.90;2.22;;;8.60;99.90;;;;;;5073598;28;20692;-80
2023/03/11 07:41:11;;;;;;;5.85;1.73;;;8.60;99.90;;;;;;5075238;28;20556;-82
2023/03/11 07:43:38;;;;;;;9.30;1.77;;;8.60;99.90;;;;;;5073641;28;20201;-81
2023/03/11 07:46:11;;;;;;;7.32;1.30;;;8.70;99.90;;;;;;5075013;28;20173;-84
2023/03/11 07:48:38;;;;;;;10.32;1.95;;;8.70;99.90;;;;;;5073832;28;20705;-81
2023/03/11 07:51:16;;;;;;;7.65;2.40;;;8.80;99.90;;;;;;5073597;28;20184;-84
2023/03/11 07:53:42;;;;;;;13.88;5.30;;;8.80;99.90;;;;;;5074823;28;20203;-84
2023/03/11 07:56:10;;;;;;;16.83;2.88;;;8.80;99.90;;;;;;5073526;28;20181;-84
2023/03/11 07:58:36;;;;;;;6.38;1.52;;;8.80;99.90;;;;;;5073399;28;20205;-84
2023/03/11 08:01:07;;;;;;;12.35;1.90;;;8.80;99.90;;;;;;5073663;28;20177;-84
2023/03/11 08:03:34;;;;;;;7.07;1.60;;;8.80;99.90;;;;;;5073358;28;20205;-81
2023/03/11 08:06:00;;;;;;;7.47;3.15;;;8.80;99.90;;;;;;5074568;28;20166;-82
2023/03/11 08:08:26;;;;;;;16.73;3.15;;;8.80;99.90;;;;;;5074429;28;20216;-82
2023/03/11 08:10:51;;;;;;;8.93;2.57;;;8.80;99.90;;;;;;5073419;28;20200;-84
2023/03/11 08:13:17;;;;;;;9.63;1.90;;;8.70;99.90;;;;;;5072938;28;20574;-84
2023/03/11 08:15:43;;;;;;;6.47;1.57;;;8.70;99.90;;;;;;5073218;28;20208;-81
2023/03/11 08:18:09;;;;;;;9.93;2.40;;;8.70;99.90;;;;;;5073118;28;20212;-84
2023/03/11 08:20:37;;;;;;;7.57;1.60;;;8.70;99.90;;;;;;5074384;28;20922;-84
2023/03/11 08:23:02;;;;;;;6.13;1.50;;;8.70;99.90;;;;;;5074666;28;20284;-84
2023/03/11 08:25:28;;;;;;;5.13;1.70;;;8.80;99.90;;;;;;5072957;28;20268;-82
2023/03/11 08:27:54;;;;;;;2.42;1.20;;;8.90;99.90;;;;;;5074556;28;20220;-81
2023/03/11 08:30:21;;;;;;;8.90;1.43;;;9.00;99.90;;;;;;5074180;28;20677;-81
2023/03/11 08:32:48;;;;;;;5.57;1.67;;;9.00;99.90;;;;;;5074504;28;20445;-82
2023/03/11 08:35:14;;;;;;;5.65;1.85;;;9.10;99.90;;;;;;5072831;28;20558;-80
2023/03/11 08:37:40;;;;;;;6.97;3.65;;;9.10;99.90;;;;;;5072419;28;20200;-80
2023/03/11 08:40:06;;;;;;;4.30;1.40;;;9.10;99.90;;;;;;5074076;28;20192;-81
2023/03/11 08:42:32;;;;;;;6.15;1.30;;;9.10;99.90;;;;;;5072872;28;20213;-80
2023/03/11 08:44:58;;;;;;;4.40;1.50;;;9.10;99.90;;;;;;5073977;28;20650;-82
2023/03/11 08:47:23;;;;;;;2.77;1.37;;;9.20;99.90;;;;;;5072707;28;20256;-82
2023/03/11 08:49:49;;;;;;;5.00;1.80;;;9.20;99.90;;;;;;5072556;28;20228;-82
2023/03/11 08:52:15;;;;;;;3.90;1.30;;;9.30;99.90;;;;;;5074125;28;20195;-81
2023/03/11 08:54:41;;;;;;;5.67;1.50;;;9.30;99.90;;;;;;5073737;28;20264;-80
2023/03/11 08:57:07;;;;;;;2.10;1.30;;;9.30;99.90;;;;;;5072590;28;20200;-80
2023/03/11 08:59:33;;;;;;;1.40;1.30;;;9.30;99.90;;;;;;5073854;28;20181;-82
2023/03/11 09:01:58;;;;;;;1.67;1.10;;;9.30;99.90;;;;;;5072550;28;20197;-79
2023/03/11 09:04:24;;;;;;;1.80;1.40;;;9.40;99.90;;;;;;5073707;28;20177;-80
2023/03/11 09:06:50;;;;;;;4.00;1.60;;;9.40;99.90;;;;;;5072543;28;20178;-80
2023/03/11 09:09:19;;;;;;;1.17;1.00;;;9.40;99.90;;;;;;5072433;28;20221;-80
2023/03/11 09:11:45;;;;;;;1.83;1.35;;;9.50;99.90;;;;;;5073740;28;20177;-83
2023/03/11 09:14:11;;;;;;;5.35;1.40;;;9.60;99.90;;;;;;5072207;28;20236;-81
2023/03/11 09:16:37;;;;;;;3.57;2.30;;;9.60;99.50;;;;;;5072234;28;20181;-80
2023/03/11 09:19:06;;;;;;;1.67;1.30;;;9.70;98.40;;;;;;5073982;28;20181;-82
2023/03/11 09:21:32;;;;;;;23.70;9.68;;;9.60;98.20;;;;;;5073789;28;20526;-81
2023/03/11 09:23:59;;;;;;;15.80;5.75;;;9.60;98.80;;;;;;5072194;28;20197;-82
2023/03/11 09:26:25;;;;;;;9.57;3.35;;;9.60;98.80;;;;;;5073642;28;20187;-82
2023/03/11 09:28:51;;;;;;;2.40;1.75;;;9.60;98.80;;;;;;5072046;28;20216;-82
2023/03/11 09:31:17;;;;;;;2.60;1.50;;;9.70;97.80;;;;;;5073420;28;20177;-83
2023/03/11 09:33:44;;;;;;;1.52;1.20;;;9.60;97.50;;;;;;5073369;28;20197;-80
2023/03/11 09:36:15;;;;;;;4.93;1.25;;;9.60;97.00;;;;;;5073453;28;20247;-80
2023/03/11 09:38:42;;;;;;;2.88;1.95;;;9.60;97.20;;;;;;5073376;28;20201;-80
2023/03/11 09:41:16;;;;;;;4.95;3.25;;;9.60;97.70;;;;;;5067507;28;20189;-80
2023/03/11 09:44:22;;;;;;;5.55;2.05;;;9.60;97.90;;;;;;5052488;28;20201;-80
2023/03/11 09:46:58;;;;;;;6.57;3.13;;;9.70;98.20;;;;;;5049823;28;20535;-83
2023/03/11 09:49:51;;;;;;;1.48;1.35;;;9.70;99.00;;;;;;5055712;28;20201;-80
2023/03/11 09:52:31;;;;;;;2.30;2.03;;;9.70;98.20;;;;;;5055879;28;20198;-83
2023/03/11 09:54:58;;;;;;;2.33;1.88;;;9.80;98.70;;;;;;5055894;28;20239;-80
2023/03/11 09:57:32;;;;;;;1.52;1.42;;;9.80;98.90;;;;;;5057400;28;20584;-80
2023/03/11 10:00:00;;;;;;;4.45;1.63;;;9.90;97.40;;;;;;5057141;28;20691;-83
2023/03/11 10:02:26;;;;;;;5.68;1.27;;;9.90;96.20;;;;;;5053988;28;20624;-80
2023/03/11 10:05:01;;;;;;;4.05;1.83;;;10.00;96.40;;;;;;5054841;28;20174;-81
2023/03/11 10:07:38;;;;;;;3.90;2.25;;;10.00;96.40;;;;;;5055065;28;20205;-80
2023/03/11 10:10:05;;;;;;;1.70;1.60;;;10.10;97.00;;;;;;5054992;28;20176;-82
2023/03/11 10:12:49;;;;;;;2.28;1.45;;;10.30;96.10;;;;;;5055180;28;20659;-82
2023/03/11 10:15:21;;;;;;;1.75;1.42;;;10.40;96.00;;;;;;5053625;28;20241;-82
2023/03/11 10:18:22;;;;;;;2.40;1.63;;;10.50;95.90;;;;;;5056620;28;20198;-83
2023/03/11 10:20:53;;;;;;;1.23;1.13;;;10.70;95.30;;;;;;5074483;28;20172;-80
2023/03/11 10:23:40;;;;;;;1.73;1.50;;;10.80;95.50;;;;;;5059653;28;20214;-83
2023/03/11 10:26:41;;;;;;;5.93;1.50;;;10.90;94.60;;;;;;5056620;28;20518;-80
2023/03/11 10:29:13;;;;;;;3.75;1.70;;;11.00;95.10;;;;;;5056181;28;20243;-83
2023/03/11 10:31:50;;;;;;;3.28;1.83;;;11.00;94.90;;;;;;5056364;28;20228;-83
2023/03/11 10:34:23;;;;;;;4.90;1.70;;;10.90;94.50;;;;;;5055205;28;20280;-80
2023/03/11 10:37:17;;;;;;;2.22;1.58;;;10.80;94.30;;;;;;5056514;28;20227;-81
2023/03/11 10:39:46;;;;;;;2.15;1.50;;;10.70;94.60;;;;;;5054988;28;20182;-80
2023/03/11 10:42:15;;;;;;;5.88;1.63;;;10.60;95.60;;;;;;5056411;28;20185;-80
2023/03/11 10:44:43;;;;;;;2.00;1.40;;;10.60;95.10;;;;;;5052798;28;20185;-80
2023/03/11 10:47:24;;;;;;;3.15;1.40;;;10.70;95.60;;;;;;5054238;28;20255;-82
2023/03/11 10:49:51;;;;;;;2.13;1.38;;;10.80;95.20;;;;;;5052591;28;20185;-80
2023/03/11 10:52:18;;;;;;;2.35;1.45;;;10.90;94.40;;;;;;5052673;28;20212;-80
2023/03/11 10:54:46;;;;;;;6.05;1.70;;;11.00;94.90;;;;;;5052906;28;20694;-82
2023/03/11 10:57:38;;;;;;;4.93;1.70;;;11.00;94.50;;;;;;5054046;28;20243;-80
2023/03/11 11:00:16;;;;;;;13.30;6.60;;;10.90;94.80;;;;;;5053787;28;20267;-80
2023/03/11 11:02:56;;;;;;;1.52;1.40;;;11.00;94.60;;;;;;5054519;28;20204;-82
2023/03/11 11:05:31;;;;;;;2.33;1.35;;;11.00;94.30;;;;;;5054572;28;20217;-82
2023/03/11 11:08:13;;;;;;;1.98;1.17;;;11.10;94.80;;;;;;5054664;28;20257;-82
2023/03/11 11:10:50;;;;;;;3.40;1.65;;;11.00;93.20;;;;;;5054423;28;20653;-82
2023/03/11 11:13:19;;;;;;;3.20;1.55;;;11.00;93.80;;;;;;5055393;28;20193;-83
2023/03/11 11:16:14;;;;;;;2.75;1.20;;;11.00;94.10;;;;;;5054297;28;20174;-80
2023/03/11 11:18:49;;;;;;;5.63;2.17;;;10.90;92.80;;;;;;5053661;28;20214;-80
2023/03/11 11:21:27;;;;;;;3.08;1.40;;;10.80;92.80;;;;;;5054438;28;20671;-82
2023/03/11 11:24:21;;;;;;;4.78;1.60;;;10.80;93.10;;;;;;5054167;28;20197;-83
2023/03/11 11:27:12;;;;;;;3.00;1.40;;;10.80;93.10;;;;;;5053723;28;20208;-81
2023/03/11 11:29:38;;;;;;;7.40;2.15;;;10.80;92.90;;;;;;5055391;28;20666;-80
2023/03/11 11:32:16;;;;;;;2.80;1.50;;;10.80;92.70;;;;;;5055748;28;20232;-81
2023/03/11 11:34:51;;;;;;;5.47;1.60;;;10.80;92.20;;;;;;5055591;28;20170;-80
2023/03/11 11:37:17;;;;;;;3.17;1.50;;;10.70;93.10;;;;;;5055533;28;20193;-83
2023/03/11 11:39:55;;;;;;;3.77;1.50;;;10.80;93.00;;;;;;5055066;28;20526;-80
2023/03/11 11:42:22;;;;;;;7.57;1.55;;;10.80;93.10;;;;;;5055549;28;20201;-80
2023/03/11 11:44:57;;;;;;;4.60;1.38;;;10.70;92.50;;;;;;5055027;28;20227;-83
2023/03/11 11:47:32;;;;;;;5.05;1.30;;;10.70;92.90;;;;;;5055304;28;20201;-80
2023/03/11 11:50:03;;;;;;;26.20;1.98;;;10.80;92.80;;;;;;5055031;28;20158;-80
2023/03/11 11:52:39;;;;;;;4.20;1.42;;;10.70;92.60;;;;;;5055452;28;20547;-81
2023/03/11 11:55:26;;;;;;;7.68;1.80;;;10.70;92.50;;;;;;5053624;28;20653;-80
2023/03/11 11:57:52;;;;;;;5.95;1.50;;;10.80;92.80;;;;;;5055323;28;20331;-80
2023/03/11 12:00:23;;;;;;;2.87;1.10;;;10.90;92.20;;;;;;5054950;28;20603;-80
2023/03/11 12:03:12;;;;;;;2.20;1.70;;;11.00;92.30;;;;;;5053683;28;20212;-82
2023/03/11 12:06:00;;;;;;;6.07;1.77;;;11.20;93.10;;;;;;5054624;28;20185;-82
2023/03/11 12:08:40;;;;;;;7.57;1.73;;;11.30;92.80;;;;;;5054551;28;20214;-83
2023/03/11 12:11:13;;;;;;;6.60;1.60;;;11.40;91.60;;;;;;5053794;28;20523;-83
2023/03/11 12:14:06;;;;;;;4.20;1.90;;;11.40;92.20;;;;;;5054273;28;20218;-81
2023/03/11 12:17:00;;;;;;;6.97;2.45;;;11.40;92.70;;;;;;5054315;28;20518;-82
2023/03/11 12:19:48;;;;;;;5.18;2.08;;;11.50;91.40;;;;;;5054470;28;20166;-80
2023/03/11 12:22:33;;;;;;;6.15;1.40;;;11.60;93.00;;;;;;5053154;28;20671;-82
2023/03/11 12:25:20;;;;;;;12.27;2.08;;;11.70;93.20;;;;;;5054488;28;20170;-82
2023/03/11 12:27:52;;;;;;;13.07;2.13;;;11.90;92.70;;;;;;5054598;28;20211;-80
2023/03/11 12:30:28;;;;;;;4.97;1.40;;;12.10;90.80;;;;;;5052939;28;20185;-80
2023/03/11 12:33:16;;;;;;;7.72;1.50;;;12.10;92.40;;;;;;5053142;28;20458;-81
2023/03/11 12:35:51;;;;;;;6.93;2.10;;;12.40;91.40;;;;;;5054127;28;20705;-81
2023/03/11 12:38:31;;;;;;;4.73;2.20;;;12.50;90.60;;;;;;5059342;28;20308;-79
2023/03/11 12:41:00;;;;;;;11.97;1.90;;;12.40;89.20;;;;;;5052417;28;20400;-80
2023/03/11 12:43:28;;;;;;;8.13;2.30;;;12.30;88.40;;;;;;5052259;28;20435;-80
2023/03/11 12:45:58;;;;;;;7.40;3.22;;;12.20;88.60;;;;;;5069319;28;20450;-82
2023/03/11 12:48:44;;;;;;;11.40;2.42;;;12.00;88.80;;;;;;5053850;28;20263;-83
2023/03/11 12:51:25;;;;;;;6.27;3.70;;;11.90;87.10;;;;;;5052544;28;20229;-83
2023/03/11 12:53:53;;;;;;;7.30;1.83;;;11.90;88.90;;;;;;5069100;28;20453;-83
2023/03/11 12:56:21;;;;;;;5.60;1.53;;;11.90;90.20;;;;;;5053941;28;20431;-80
2023/03/11 12:59:06;;;;;;;7.73;1.80;;;11.90;89.50;;;;;;5067788;28;20481;-80
2023/03/11 13:01:56;;;;;;;11.23;4.03;;;11.90;90.10;;;;;;5050369;28;20799;-80
2023/03/11 13:04:44;;;;;;;9.05;2.78;;;12.00;89.20;;;;;;5050313;28;20205;-80